createdAt,value
2022-08-05T00:00:54.162Z,6.38
2022-08-05T00:03:21.735Z,6.18
2022-08-05T00:06:05.019Z,5.17
2022-08-05T00:08:36.723Z,6.60
2022-08-05T00:11:07.637Z,6.60
2022-08-05T00:13:53.171Z,8.88
2022-08-05T00:16:36.273Z,6.85
2022-08-05T00:19:04.782Z,4.83
2022-08-05T00:21:36.050Z,7.25
2022-08-05T00:24:10.114Z,6.57
2022-08-05T00:26:37.986Z,7.63
2022-08-05T00:29:05.081Z,5.68
2022-08-05T00:31:53.786Z,5.77
2022-08-05T00:34:54.358Z,6.80
2022-08-05T00:37:10.573Z,5.90
2022-08-05T00:39:57.033Z,5.13
2022-08-05T00:42:32.531Z,6.15
2022-08-05T00:45:00.053Z,7.07
2022-08-05T00:47:31.623Z,6.78
2022-08-05T00:50:14.332Z,6.80
2022-08-05T00:52:42.329Z,5.32
2022-08-05T00:55:12.712Z,7.88
2022-08-05T00:57:57.957Z,4.50
2022-08-05T01:00:27.169Z,8.00
2022-08-05T01:02:54.488Z,6.10
2022-08-05T01:05:21.971Z,6.45
2022-08-05T01:08:41.801Z,8.07
2022-08-05T01:10:39.046Z,5.70
2022-08-05T01:13:13.273Z,6.57
2022-08-05T01:15:52.314Z,8.13
2022-08-05T01:18:25.774Z,6.55
2022-08-05T01:21:02.501Z,5.53
2022-08-05T01:23:34.785Z,5.83
2022-08-05T01:26:20.332Z,5.03
2022-08-05T01:29:00.542Z,5.22
2022-08-05T01:31:42.672Z,6.90
2022-08-05T01:34:31.688Z,8.38
2022-08-05T01:37:09.033Z,9.37
2022-08-05T01:39:47.330Z,7.10
2022-08-05T01:42:17.011Z,7.80
2022-08-05T01:44:45.671Z,7.53
2022-08-05T01:47:21.976Z,5.90
2022-08-05T01:50:00.564Z,6.73
2022-08-05T01:52:30.455Z,9.43
2022-08-05T01:54:58.721Z,5.82
2022-08-05T01:58:29.305Z,6.70
2022-08-05T02:00:16.590Z,7.80
2022-08-05T02:02:55.163Z,6.23
2022-08-05T02:05:23.701Z,6.40
2022-08-05T02:08:00.242Z,7.60
2022-08-05T02:10:29.983Z,5.85
2022-08-05T02:13:00.937Z,5.32
2022-08-05T02:15:35.473Z,6.63
2022-08-05T02:18:32.282Z,4.85
2022-08-05T02:21:02.981Z,6.20
2022-08-05T02:23:33.704Z,6.25
2022-08-05T02:26:03.882Z,6.40
2022-08-05T02:28:36.418Z,6.50
2022-08-05T02:31:14.322Z,7.85
2022-08-05T02:33:45.020Z,9.35
2022-08-05T02:36:17.245Z,6.60
2022-08-05T02:38:53.693Z,6.63
2022-08-05T02:41:23.007Z,6.30
2022-08-05T02:44:02.368Z,8.27
2022-08-05T02:46:33.965Z,6.47
2022-08-05T02:49:01.882Z,7.18
2022-08-05T02:52:03.206Z,7.30
2022-08-05T02:54:35.982Z,7.03
2022-08-05T02:57:05.195Z,10.20
2022-08-05T02:59:50.288Z,5.47
2022-08-05T03:02:23.611Z,6.88
2022-08-05T03:04:55.269Z,7.57
2022-08-05T03:08:00.505Z,5.50
2022-08-05T03:10:10.395Z,7.18
2022-08-05T03:12:41.146Z,7.18
2022-08-05T03:15:09.702Z,8.48
2022-08-05T03:17:40.710Z,6.28
2022-08-05T03:20:09.995Z,6.63
2022-08-05T03:22:37.611Z,7.10
2022-08-05T03:25:33.938Z,7.85
2022-08-05T03:28:00.594Z,6.70
2022-08-05T03:30:34.112Z,8.25
2022-08-05T03:33:02.786Z,6.50
2022-08-05T03:35:30.986Z,5.63
2022-08-05T03:38:01.454Z,7.78
2022-08-05T03:40:31.963Z,6.18
2022-08-05T03:43:01.379Z,5.25
2022-08-05T03:45:57.305Z,7.23
2022-08-05T03:48:25.762Z,5.75
2022-08-05T03:50:54.092Z,6.55
2022-08-05T03:55:53.700Z,6.95
2022-08-05T03:56:30.449Z,6.07
2022-08-05T03:59:03.099Z,7.17
2022-08-05T04:01:32.521Z,6.88
2022-08-05T04:04:05.428Z,5.65
2022-08-05T04:06:38.060Z,6.50
2022-08-05T04:09:08.718Z,6.15
2022-08-05T04:11:50.503Z,6.17
2022-08-05T04:14:30.344Z,6.65
2022-08-05T04:16:58.517Z,7.25
2022-08-05T04:19:25.593Z,6.10
2022-08-05T04:22:09.882Z,5.80
2022-08-05T04:24:43.885Z,8.13
2022-08-05T04:27:11.980Z,6.68
2022-08-05T04:29:39.504Z,4.13
2022-08-05T04:32:07.797Z,8.32
2022-08-05T04:34:37.500Z,7.55
2022-08-05T04:37:10.250Z,7.47
2022-08-05T04:39:38.158Z,6.63
2022-08-05T04:42:06.545Z,6.57
2022-08-05T04:44:33.639Z,6.00
2022-08-05T04:47:09.353Z,5.65
2022-08-05T04:49:38.850Z,5.60
2022-08-05T04:52:24.263Z,8.02
2022-08-05T04:54:57.405Z,6.28
2022-08-05T04:57:29.034Z,6.35
2022-08-05T04:59:57.530Z,3.78
2022-08-05T05:02:36.620Z,4.97
2022-08-05T05:05:26.107Z,5.30
2022-08-05T05:08:01.097Z,6.70
2022-08-05T05:10:29.985Z,5.55
2022-08-05T05:12:57.730Z,5.18
2022-08-05T05:15:59.126Z,5.63
2022-08-05T05:18:28.453Z,5.18
2022-08-05T05:21:01.209Z,5.82
2022-08-05T05:24:01.790Z,6.07
2022-08-05T05:26:15.446Z,4.07
2022-08-05T05:28:44.783Z,4.67
2022-08-05T05:31:12.646Z,6.95
2022-08-05T05:33:59.328Z,5.60
2022-08-05T05:36:28.841Z,5.25
2022-08-05T05:38:57.239Z,5.47
2022-08-05T05:41:24.649Z,4.53
2022-08-05T05:43:56.873Z,5.38
2022-08-05T05:46:24.941Z,5.15
2022-08-05T05:48:52.018Z,4.43
2022-08-05T05:51:21.203Z,4.15
2022-08-05T05:53:58.196Z,5.43
2022-08-05T05:56:32.732Z,5.20
2022-08-05T05:59:03.307Z,4.68
2022-08-05T06:01:37.688Z,5.85
2022-08-05T06:04:12.196Z,4.22
2022-08-05T06:06:41.672Z,4.53
2022-08-05T06:09:10.383Z,4.68
2022-08-05T06:12:00.990Z,5.90
2022-08-05T06:14:29.409Z,4.57
2022-08-05T06:16:57.035Z,3.45
2022-08-05T06:19:35.088Z,5.93
2022-08-05T06:22:06.623Z,4.55
2022-08-05T06:24:34.691Z,4.88
2022-08-05T06:27:02.089Z,4.15
2022-08-05T06:29:51.945Z,5.20
2022-08-05T06:32:25.036Z,4.90
2022-08-05T06:34:55.328Z,5.03
2022-08-05T06:37:56.788Z,4.85
2022-08-05T06:40:10.934Z,6.63
2022-08-05T06:42:39.949Z,3.70
2022-08-05T06:45:08.849Z,4.13
2022-08-05T06:48:47.320Z,5.53
2022-08-05T06:50:24.797Z,6.28
2022-08-05T06:53:03.617Z,4.47
2022-08-05T06:55:41.896Z,3.78
2022-08-05T06:58:29.035Z,3.93
2022-08-05T07:00:58.551Z,4.18
2022-08-05T07:03:32.304Z,3.53
2022-08-05T07:05:59.810Z,5.95
2022-08-05T07:08:28.713Z,3.90
2022-08-05T07:10:56.101Z,3.77
2022-08-05T07:13:57.896Z,3.95
2022-08-05T07:18:00.824Z,4.10
2022-08-05T07:20:10.636Z,3.13
2022-08-05T07:22:22.411Z,3.35
2022-08-05T07:24:56.480Z,2.70
2022-08-05T07:27:23.826Z,3.42
2022-08-05T07:30:22.938Z,2.97
2022-08-05T07:32:41.674Z,3.80
2022-08-05T07:36:05.388Z,3.13
2022-08-05T07:37:59.545Z,3.33
2022-08-05T07:40:32.838Z,4.10
2022-08-05T07:43:04.859Z,2.95
2022-08-05T07:45:57.285Z,2.83
2022-08-05T07:49:02.152Z,4.15
2022-08-05T07:51:23.731Z,2.97
2022-08-05T07:53:59.379Z,3.00
2022-08-05T07:57:01.197Z,2.90
2022-08-05T07:59:16.173Z,2.47
2022-08-05T08:01:52.268Z,4.72
2022-08-05T08:04:37.419Z,3.07
2022-08-05T08:07:06.958Z,2.97
2022-08-05T08:09:34.741Z,3.90
2022-08-05T08:12:11.208Z,4.22
2022-08-05T08:14:46.798Z,2.45
2022-08-05T08:17:16.097Z,2.87
2022-08-05T08:20:21.858Z,1.90
2022-08-05T08:22:32.233Z,2.25
2022-08-05T08:25:03.322Z,3.75
2022-08-05T08:27:35.700Z,2.38
2022-08-05T08:30:29.976Z,2.30
2022-08-05T08:32:58.639Z,4.35
2022-08-05T08:35:35.160Z,2.22
2022-08-05T08:38:08.430Z,2.13
2022-08-05T08:40:38.927Z,2.20
2022-08-05T08:45:20.443Z,3.73
2022-08-05T08:45:55.111Z,2.17
2022-08-05T08:49:03.277Z,3.63
2022-08-05T08:52:01.656Z,3.92
2022-08-05T08:53:56.861Z,3.55
2022-08-05T08:56:27.133Z,2.73
2022-08-05T08:58:54.841Z,2.55
2022-08-05T09:01:25.754Z,2.70
2022-08-05T09:03:55.570Z,2.25
2022-08-05T09:06:29.306Z,4.57
2022-08-05T09:08:58.318Z,2.13
2022-08-05T09:11:51.884Z,2.58
2022-08-05T09:14:58.319Z,2.92
2022-08-05T09:17:04.592Z,2.78
2022-08-05T09:19:36.648Z,3.38
2022-08-05T09:22:30.934Z,3.83
2022-08-05T09:25:02.158Z,3.17
2022-08-05T09:28:04.307Z,3.17
2022-08-05T09:30:34.018Z,4.43
2022-08-05T09:33:04.982Z,3.53
2022-08-05T09:35:32.793Z,2.80
2022-08-05T09:38:12.829Z,4.63
2022-08-05T09:40:52.175Z,3.97
2022-08-05T09:43:40.636Z,2.60
2022-08-05T09:46:27.919Z,2.60
2022-08-05T09:49:07.532Z,2.70
2022-08-05T09:51:37.416Z,4.45
2022-08-05T09:54:08.260Z,3.60
2022-08-05T09:56:37.917Z,2.97
2022-08-05T09:59:09.406Z,2.42
2022-08-05T10:01:45.633Z,6.47
2022-08-05T10:04:16.055Z,3.70
2022-08-05T10:06:58.910Z,3.85
2022-08-05T10:09:28.180Z,3.28
2022-08-05T10:12:30.693Z,4.50
2022-08-05T10:14:55.206Z,3.60
2022-08-05T10:17:37.283Z,3.45
2022-08-05T10:20:09.935Z,3.95
2022-08-05T10:22:48.663Z,3.17
2022-08-05T10:25:18.766Z,4.57
2022-08-05T10:28:13.310Z,2.90
2022-08-05T10:32:49.350Z,3.15
2022-08-05T10:33:23.510Z,3.88
2022-08-05T10:35:58.971Z,2.47
2022-08-05T10:38:29.127Z,3.25
2022-08-05T10:41:08.826Z,3.60
2022-08-05T10:43:50.959Z,3.60
2022-08-05T10:46:23.841Z,2.20
2022-08-05T10:49:00.527Z,2.53
2022-08-05T10:51:53.144Z,2.15
2022-08-05T10:54:46.895Z,2.40
2022-08-05T10:57:29.406Z,2.05
2022-08-05T11:00:19.541Z,4.32
2022-08-05T11:03:25.702Z,2.30
2022-08-05T11:06:15.266Z,2.15
2022-08-05T11:09:02.155Z,2.83
2022-08-05T11:11:44.720Z,3.33
2022-08-05T11:17:58.178Z,2.78
2022-08-05T11:20:32.838Z,2.13
2022-08-05T11:23:05.801Z,3.10
2022-08-05T11:26:04.903Z,3.17
2022-08-05T11:28:22.385Z,3.42
2022-08-05T11:31:01.449Z,3.40
2022-08-05T11:33:46.706Z,2.75
2022-08-05T11:36:34.654Z,3.50
2022-08-05T11:39:05.609Z,3.95
2022-08-05T11:42:01.689Z,2.63
2022-08-05T11:44:53.093Z,3.00
2022-08-05T11:47:48.902Z,3.05
2022-08-05T11:49:58.217Z,3.43
2022-08-05T11:52:29.699Z,2.75
2022-08-05T11:54:59.537Z,3.05
2022-08-05T11:58:08.403Z,2.45
2022-08-05T12:00:29.122Z,3.13
2022-08-05T12:02:57.718Z,3.77
2022-08-05T12:05:36.228Z,2.03
2022-08-05T12:08:11.250Z,8.52
2022-08-05T12:10:45.836Z,1.70
2022-08-05T12:13:17.314Z,3.67
2022-08-05T12:15:56.017Z,3.57
2022-08-05T12:18:32.988Z,3.40
2022-08-05T12:21:13.606Z,2.50
2022-08-05T12:23:52.625Z,4.82
2022-08-05T12:26:19.914Z,2.45
2022-08-05T12:28:47.030Z,3.37
2022-08-05T12:31:23.371Z,2.80
2022-08-05T12:34:05.417Z,2.33
2022-08-05T12:36:33.385Z,3.90
2022-08-05T12:39:00.754Z,2.40
2022-08-05T12:41:34.559Z,5.17
2022-08-05T12:44:03.121Z,3.55
2022-08-05T12:46:31.565Z,2.65
2022-08-05T12:49:13.231Z,3.22
2022-08-05T12:52:13.942Z,3.45
2022-08-05T12:54:40.776Z,2.70
2022-08-05T12:57:10.715Z,3.50
2022-08-05T13:01:58.568Z,3.78
2022-08-05T13:02:41.068Z,3.25
2022-08-05T13:05:08.474Z,2.05
2022-08-05T13:07:59.547Z,2.90
2022-08-05T13:10:28.758Z,3.75
2022-08-05T13:12:58.003Z,2.53
2022-08-05T13:15:42.173Z,3.20
2022-08-05T13:18:19.021Z,3.05
2022-08-05T13:20:49.275Z,3.30
2022-08-05T13:23:17.996Z,4.13
2022-08-05T13:25:52.745Z,3.65
2022-08-05T13:28:26.987Z,3.42
2022-08-05T13:30:54.149Z,3.15
2022-08-05T13:34:22.502Z,3.47
2022-08-05T13:36:14.377Z,3.35
2022-08-05T13:38:42.540Z,4.32
2022-08-05T13:41:10.888Z,3.65
2022-08-05T13:43:44.528Z,4.82
2022-08-05T13:46:13.592Z,3.17
2022-08-05T13:49:00.333Z,4.40
2022-08-05T13:51:29.589Z,2.35
2022-08-05T13:54:11.977Z,1.50
2022-08-05T13:56:44.937Z,2.33
2022-08-05T13:59:24.914Z,2.30
2022-08-05T14:01:57.425Z,2.35
2022-08-05T14:04:49.509Z,2.65
2022-08-05T14:07:55.375Z,3.63
2022-08-05T14:10:09.243Z,4.20
2022-08-05T14:12:36.771Z,3.43
2022-08-05T14:15:05.870Z,4.85
2022-08-05T14:17:55.065Z,2.63
2022-08-05T14:20:27.762Z,2.28
2022-08-05T14:22:55.054Z,2.35
2022-08-05T14:25:28.246Z,2.67
2022-08-05T14:27:55.665Z,3.13
2022-08-05T14:30:22.856Z,2.63
2022-08-05T14:32:53.557Z,2.88
2022-08-05T14:35:22.798Z,3.38
2022-08-05T14:37:55.013Z,2.13
2022-08-05T14:40:24.284Z,2.38
2022-08-05T14:42:51.845Z,2.75
2022-08-05T14:45:19.061Z,2.80
2022-08-05T14:48:04.116Z,1.90
2022-08-05T14:50:33.218Z,2.20
2022-08-05T14:53:07.103Z,2.03
2022-08-05T14:55:39.548Z,1.90
2022-08-05T14:58:12.032Z,5.32
2022-08-05T15:00:58.742Z,3.38
2022-08-05T15:03:27.708Z,3.30
2022-08-05T15:06:13.469Z,2.25
2022-08-05T15:09:01.088Z,4.15
2022-08-05T15:11:52.706Z,3.35
2022-08-05T15:14:33.461Z,5.15
2022-08-05T15:17:03.886Z,4.10
2022-08-05T15:19:31.371Z,4.03
2022-08-05T15:22:01.049Z,2.20
2022-08-05T15:24:28.739Z,3.28
2022-08-05T15:26:57.066Z,3.85
2022-08-05T15:29:30.219Z,3.07
2022-08-05T15:32:03.309Z,2.25
2022-08-05T15:34:33.785Z,2.65
2022-08-05T15:37:06.268Z,2.17
2022-08-05T15:41:01.462Z,3.03
2022-08-05T15:42:56.273Z,2.40
2022-08-05T15:45:18.739Z,3.13
2022-08-05T15:47:54.406Z,4.03
2022-08-05T15:50:25.104Z,3.53
2022-08-05T15:52:55.363Z,3.03
2022-08-05T15:55:24.852Z,4.10
2022-08-05T15:58:16.598Z,4.20
2022-08-05T16:00:50.467Z,2.45
2022-08-05T16:03:32.602Z,2.97
2022-08-05T16:06:03.432Z,2.92
2022-08-05T16:08:31.827Z,4.07
2022-08-05T16:10:59.167Z,3.97
2022-08-05T16:13:31.846Z,6.53
2022-08-05T16:16:01.649Z,2.40
2022-08-05T16:18:30.507Z,3.15
2022-08-05T16:20:59.652Z,3.10
2022-08-05T16:23:32.985Z,3.67
2022-08-05T16:26:18.336Z,4.07
2022-08-05T16:28:47.309Z,5.65
2022-08-05T16:31:16.810Z,4.28
2022-08-05T16:33:46.150Z,3.40
2022-08-05T16:36:13.370Z,3.25
2022-08-05T16:38:54.439Z,3.03
2022-08-05T16:42:27.782Z,4.43
2022-08-05T16:44:10.489Z,3.65
2022-08-05T16:46:38.773Z,3.10
2022-08-05T16:49:09.110Z,3.40
2022-08-05T16:51:42.931Z,3.33
2022-08-05T16:54:25.731Z,5.05
2022-08-05T16:56:56.040Z,5.55
2022-08-05T16:59:23.311Z,3.10
2022-08-05T17:01:54.329Z,4.95
2022-08-05T17:04:23.847Z,3.95
2022-08-05T17:06:55.239Z,4.70
2022-08-05T17:09:23.141Z,3.92
2022-08-05T17:11:54.681Z,4.37
2022-08-05T17:14:36.732Z,4.75
2022-08-05T17:17:05.556Z,5.47
2022-08-05T17:19:32.736Z,5.38
2022-08-05T17:22:01.207Z,4.20
2022-08-05T17:24:38.710Z,4.40
2022-08-05T17:27:11.790Z,4.18
2022-08-05T17:29:43.214Z,3.63
2022-08-05T17:32:17.366Z,3.90
2022-08-05T17:34:53.495Z,5.25
2022-08-05T17:37:41.798Z,4.77
2022-08-05T17:40:10.386Z,4.93
2022-08-05T17:42:42.962Z,4.82
2022-08-05T17:45:21.019Z,5.38
2022-08-05T17:47:53.591Z,3.75
2022-08-05T17:50:28.032Z,4.73
2022-08-05T17:52:56.623Z,4.57
2022-08-05T17:55:34.114Z,4.40
2022-08-05T17:58:02.120Z,4.82
2022-08-05T18:00:29.815Z,3.72
2022-08-05T18:02:57.224Z,4.53
2022-08-05T18:05:27.928Z,2.25
2022-08-05T18:07:56.894Z,3.65
2022-08-05T18:10:24.623Z,2.83
2022-08-05T18:12:52.829Z,4.72
2022-08-05T18:15:20.028Z,3.43
2022-08-05T18:17:59.068Z,5.30
2022-08-05T18:20:32.998Z,4.25
2022-08-05T18:23:09.362Z,5.60
2022-08-05T18:25:45.061Z,4.53
2022-08-05T18:28:12.764Z,4.40
2022-08-05T18:30:45.055Z,7.95
2022-08-05T18:33:15.099Z,4.82
2022-08-05T18:36:00.774Z,4.70
2022-08-05T18:38:31.221Z,5.28
2022-08-05T18:41:55.690Z,4.97
2022-08-05T18:43:48.626Z,7.25
2022-08-05T18:46:19.955Z,4.32
2022-08-05T18:48:48.057Z,4.35
2022-08-05T18:52:04.584Z,5.85
2022-08-05T18:54:25.422Z,6.13
2022-08-05T18:56:52.527Z,3.78
2022-08-05T18:59:42.942Z,6.65
2022-08-05T19:02:11.156Z,6.38
2022-08-05T19:05:01.429Z,6.03
2022-08-05T19:07:45.404Z,7.83
2022-08-05T19:10:16.401Z,4.55
2022-08-05T19:12:46.271Z,3.15
2022-08-05T19:15:56.853Z,7.60
2022-08-05T19:18:09.645Z,4.13
2022-08-05T19:20:41.735Z,4.90
2022-08-05T19:25:44.380Z,6.03
2022-08-05T19:28:11.543Z,4.67
2022-08-05T19:30:43.814Z,5.63
2022-08-05T19:33:16.904Z,3.95
2022-08-05T19:35:56.764Z,5.35
2022-08-05T19:38:26.672Z,4.35
2022-08-05T19:40:53.920Z,6.23
2022-08-05T19:43:24.412Z,4.35
2022-08-05T19:46:16.658Z,5.00
2022-08-05T19:48:55.238Z,4.82
2022-08-05T19:51:37.897Z,5.10
2022-08-05T19:54:21.856Z,6.43
2022-08-05T19:56:55.695Z,4.13
2022-08-05T19:59:55.889Z,4.70
2022-08-05T20:02:09.994Z,3.97
2022-08-05T20:04:38.216Z,6.78
2022-08-05T20:07:13.458Z,4.80
2022-08-05T20:09:54.627Z,4.45
2022-08-05T20:12:24.302Z,8.30
2022-08-05T20:14:52.728Z,7.15
2022-08-05T20:17:23.580Z,3.83
2022-08-05T20:19:57.002Z,4.37
2022-08-05T20:22:27.184Z,4.45
2022-08-05T20:24:55.393Z,6.18
2022-08-05T20:27:27.720Z,7.55
2022-08-05T20:30:10.164Z,5.40
2022-08-05T20:32:37.333Z,6.23
2022-08-05T20:35:12.196Z,4.10
2022-08-05T20:38:07.858Z,4.43
2022-08-05T20:40:27.343Z,4.97
2022-08-05T20:42:59.972Z,4.53
2022-08-05T20:45:56.017Z,3.40
2022-08-05T20:48:16.352Z,3.05
2022-08-05T20:50:45.316Z,7.03
2022-08-05T20:53:16.307Z,5.32
2022-08-05T20:56:08.439Z,4.05
2022-08-05T20:58:39.071Z,4.60
2022-08-05T21:01:06.217Z,5.00
2022-08-05T21:03:36.962Z,5.28
2022-08-05T21:06:28.804Z,6.15
2022-08-05T21:08:56.807Z,5.25
2022-08-05T21:12:07.741Z,7.00
2022-08-05T21:14:10.926Z,4.80
2022-08-05T21:16:39.815Z,4.53
2022-08-05T21:19:06.866Z,6.25
2022-08-05T21:21:43.901Z,8.40
2022-08-05T21:24:19.593Z,5.20
2022-08-05T21:26:53.111Z,6.00
2022-08-05T21:29:23.476Z,5.60
2022-08-05T21:31:53.827Z,2.92
2022-08-05T21:34:21.075Z,4.88
2022-08-05T21:36:49.419Z,4.13
2022-08-05T21:39:26.291Z,3.80
2022-08-05T21:42:02.008Z,7.32
2022-08-05T21:44:30.143Z,4.88
2022-08-05T21:46:58.573Z,5.20
2022-08-05T21:49:59.501Z,6.30
2022-08-05T21:52:22.980Z,7.65
2022-08-05T21:54:55.471Z,5.25
2022-08-05T21:57:31.545Z,5.07
2022-08-05T22:00:10.893Z,4.50
2022-08-05T22:02:38.673Z,6.10
2022-08-05T22:05:06.070Z,4.30
2022-08-05T22:07:40.521Z,6.32
2022-08-05T22:10:26.680Z,3.53
2022-08-05T22:12:54.823Z,4.82
2022-08-05T22:15:56.597Z,3.73
2022-08-05T22:18:11.889Z,5.45
2022-08-05T22:20:39.824Z,8.63
2022-08-05T22:24:00.659Z,4.90
2022-08-05T22:26:31.810Z,4.03
2022-08-05T22:29:00.847Z,7.10
2022-08-05T22:31:30.030Z,5.05
2022-08-05T22:34:01.610Z,5.80
2022-08-05T22:36:29.595Z,8.93
2022-08-05T22:38:57.060Z,5.63
2022-08-05T22:42:10.198Z,6.60
2022-08-05T22:44:18.971Z,6.25
2022-08-05T22:46:46.399Z,5.57
2022-08-05T22:49:46.175Z,5.72
2022-08-05T22:52:06.399Z,5.18
2022-08-05T22:54:38.796Z,4.57
2022-08-05T22:57:06.498Z,6.97
2022-08-05T22:59:45.082Z,4.15
2022-08-05T23:02:17.661Z,5.00
2022-08-05T23:04:51.084Z,4.88
2022-08-05T23:07:18.625Z,10.80
2022-08-05T23:09:57.281Z,6.22
2022-08-05T23:12:32.388Z,6.05
2022-08-05T23:15:00.386Z,6.70
2022-08-05T23:17:34.419Z,5.70
2022-08-05T23:20:06.189Z,7.60
2022-08-05T23:22:43.943Z,5.10
2022-08-05T23:25:17.169Z,6.72
2022-08-05T23:28:02.265Z,6.38
2022-08-05T23:30:31.171Z,5.85
2022-08-05T23:32:58.868Z,6.30
2022-08-05T23:35:28.405Z,7.05
2022-08-05T23:38:01.118Z,7.68
2022-08-05T23:40:28.267Z,5.50
2022-08-05T23:42:55.585Z,4.50
2022-08-05T23:45:23.791Z,7.67
2022-08-05T23:47:53.879Z,6.32
2022-08-05T23:50:26.688Z,6.03
2022-08-05T23:52:55.280Z,6.97
2022-08-05T23:55:30.821Z,6.18
2022-08-05T23:57:58.666Z,5.27
